sensor_id;sensor_type;location;lat;lon;timestamp;temperature;humidity
22192;DHT22;11261;52.456;10.850;2023-02-28T00:01:30;0.70;99.90
22192;DHT22;11261;52.456;10.850;2023-02-28T00:03:59;0.40;99.90
22192;DHT22;11261;52.456;10.850;2023-02-28T00:06:28;0.40;99.90
22192;DHT22;11261;52.456;10.850;2023-02-28T00:08:56;0.60;99.90
22192;DHT22;11261;52.456;10.850;2023-02-28T00:11:25;0.20;99.90
22192;DHT22;11261;52.456;10.850;2023-02-28T00:13:53;-0.30;99.90
22192;DHT22;11261;52.456;10.850;2023-02-28T00:16:22;-0.20;99.90
22192;DHT22;11261;52.456;10.850;2023-02-28T00:18:52;0.10;99.90
22192;DHT22;11261;52.456;10.850;2023-02-28T00:21:20;0.30;99.90
22192;DHT22;11261;52.456;10.850;2023-02-28T00:23:49;0.50;99.90
22192;DHT22;11261;52.456;10.850;2023-02-28T00:26:17;0.20;99.90
22192;DHT22;11261;52.456;10.850;2023-02-28T00:28:47;0.30;99.90
22192;DHT22;11261;52.456;10.850;2023-02-28T00:31:16;0.40;99.90
22192;DHT22;11261;52.456;10.850;2023-02-28T00:33:45;0.40;99.90
22192;DHT22;11261;52.456;10.850;2023-02-28T00:36:14;0.40;99.90
22192;DHT22;11261;52.456;10.850;2023-02-28T00:38:43;0.50;99.90
22192;DHT22;11261;52.456;10.850;2023-02-28T00:41:11;0.50;99.90
22192;DHT22;11261;52.456;10.850;2023-02-28T00:43:39;0.50;99.90
22192;DHT22;11261;52.456;10.850;2023-02-28T00:46:08;0.40;99.90
22192;DHT22;11261;52.456;10.850;2023-02-28T00:48:37;0.20;99.90
22192;DHT22;11261;52.456;10.850;2023-02-28T00:51:05;0.00;99.90
22192;DHT22;11261;52.456;10.850;2023-02-28T00:53:35;0.30;99.90
22192;DHT22;11261;52.456;10.850;2023-02-28T00:56:03;0.30;99.90
22192;DHT22;11261;52.456;10.850;2023-02-28T00:58:32;0.40;99.90
22192;DHT22;11261;52.456;10.850;2023-02-28T01:01:01;0.30;99.90
22192;DHT22;11261;52.456;10.850;2023-02-28T01:03:29;0.10;99.90
22192;DHT22;11261;52.456;10.850;2023-02-28T01:05:58;0.10;99.90
22192;DHT22;11261;52.456;10.850;2023-02-28T01:08:26;0.30;99.90
22192;DHT22;11261;52.456;10.850;2023-02-28T01:10:56;0.30;99.90
22192;DHT22;11261;52.456;10.850;2023-02-28T01:13:24;0.30;99.90
22192;DHT22;11261;52.456;10.850;2023-02-28T01:15:55;0.20;99.90
22192;DHT22;11261;52.456;10.850;2023-02-28T01:18:24;0.20;99.90
22192;DHT22;11261;52.456;10.850;2023-02-28T01:20:52;0.20;99.90
22192;DHT22;11261;52.456;10.850;2023-02-28T01:23:21;0.30;99.90
22192;DHT22;11261;52.456;10.850;2023-02-28T01:25:50;0.40;99.90
22192;DHT22;11261;52.456;10.850;2023-02-28T01:28:20;0.30;99.90
22192;DHT22;11261;52.456;10.850;2023-02-28T01:30:49;-0.20;99.90
22192;DHT22;11261;52.456;10.850;2023-02-28T01:33:18;-0.10;99.90
22192;DHT22;11261;52.456;10.850;2023-02-28T01:35:46;0.10;99.90
22192;DHT22;11261;52.456;10.850;2023-02-28T01:38:15;0.20;99.90
22192;DHT22;11261;52.456;10.850;2023-02-28T01:40:49;0.20;99.90
22192;DHT22;11261;52.456;10.850;2023-02-28T01:43:22;0.30;99.90
22192;DHT22;11261;52.456;10.850;2023-02-28T01:45:51;-0.20;99.90
22192;DHT22;11261;52.456;10.850;2023-02-28T01:48:24;-0.30;99.90
22192;DHT22;11261;52.456;10.850;2023-02-28T01:50:55;-0.20;99.90
22192;DHT22;11261;52.456;10.850;2023-02-28T01:53:31;-0.10;99.90
22192;DHT22;11261;52.456;10.850;2023-02-28T01:56:00;0.00;99.90
22192;DHT22;11261;52.456;10.850;2023-02-28T01:58:33;0.10;99.90
22192;DHT22;11261;52.456;10.850;2023-02-28T02:01:02;0.10;99.90
22192;DHT22;11261;52.456;10.850;2023-02-28T02:03:31;0.10;99.90
22192;DHT22;11261;52.456;10.850;2023-02-28T02:06:00;0.20;99.90
22192;DHT22;11261;52.456;10.850;2023-02-28T02:08:29;0.20;99.90
22192;DHT22;11261;52.456;10.850;2023-02-28T02:11:00;0.10;99.90
22192;DHT22;11261;52.456;10.850;2023-02-28T02:13:59;0.10;99.90
22192;DHT22;11261;52.456;10.850;2023-02-28T02:16:40;0.10;99.90
22192;DHT22;11261;52.456;10.850;2023-02-28T02:19:39;0.20;99.90
22192;DHT22;11261;52.456;10.850;2023-02-28T02:22:26;0.10;99.90
22192;DHT22;11261;52.456;10.850;2023-02-28T02:25:16;0.00;99.90
22192;DHT22;11261;52.456;10.850;2023-02-28T02:28:26;0.00;99.90
22192;DHT22;11261;52.456;10.850;2023-02-28T02:37:09;-0.20;99.90
22192;DHT22;11261;52.456;10.850;2023-02-28T02:39:47;0.00;99.90
22192;DHT22;11261;52.456;10.850;2023-02-28T02:42:21;-0.10;99.90
22192;DHT22;11261;52.456;10.850;2023-02-28T02:44:56;-0.40;99.90
22192;DHT22;11261;52.456;10.850;2023-02-28T02:47:29;-0.50;99.90
22192;DHT22;11261;52.456;10.850;2023-02-28T02:50:04;-0.60;99.90
22192;DHT22;11261;52.456;10.850;2023-02-28T02:52:38;-0.40;99.90
22192;DHT22;11261;52.456;10.850;2023-02-28T02:55:09;-0.20;99.90
22192;DHT22;11261;52.456;10.850;2023-02-28T02:57:44;-0.30;99.90
22192;DHT22;11261;52.456;10.850;2023-02-28T03:00:14;-0.20;99.90
22192;DHT22;11261;52.456;10.850;2023-02-28T03:02:44;-0.30;99.90
22192;DHT22;11261;52.456;10.850;2023-02-28T03:05:19;-0.30;99.90
22192;DHT22;11261;52.456;10.850;2023-02-28T03:07:49;-0.20;99.90
22192;DHT22;11261;52.456;10.850;2023-02-28T03:10:36;-0.20;99.90
22192;DHT22;11261;52.456;10.850;2023-02-28T03:13:15;-0.10;99.90
22192;DHT22;11261;52.456;10.850;2023-02-28T03:15:56;-0.10;99.90
22192;DHT22;11261;52.456;10.850;2023-02-28T03:18:32;-0.10;99.90
22192;DHT22;11261;52.456;10.850;2023-02-28T03:21:12;-0.20;99.90
22192;DHT22;11261;52.456;10.850;2023-02-28T03:23:48;-0.20;99.90
22192;DHT22;11261;52.456;10.850;2023-02-28T03:26:22;-0.20;99.90
22192;DHT22;11261;52.456;10.850;2023-02-28T03:28:56;-0.30;99.90
22192;DHT22;11261;52.456;10.850;2023-02-28T03:31:32;-0.30;99.90
22192;DHT22;11261;52.456;10.850;2023-02-28T03:34:10;-0.30;99.90
22192;DHT22;11261;52.456;10.850;2023-02-28T03:36:47;-0.30;99.90
22192;DHT22;11261;52.456;10.850;2023-02-28T03:39:18;-0.50;99.90
22192;DHT22;11261;52.456;10.850;2023-02-28T03:41:51;-0.50;99.90
22192;DHT22;11261;52.456;10.850;2023-02-28T03:44:23;-0.50;99.90
22192;DHT22;11261;52.456;10.850;2023-02-28T03:46:56;-0.60;99.90
22192;DHT22;11261;52.456;10.850;2023-02-28T03:49:28;-0.50;99.90
22192;DHT22;11261;52.456;10.850;2023-02-28T03:52:02;-0.40;99.90
22192;DHT22;11261;52.456;10.850;2023-02-28T03:54:32;-0.50;99.90
22192;DHT22;11261;52.456;10.850;2023-02-28T03:57:07;-0.60;99.90
22192;DHT22;11261;52.456;10.850;2023-02-28T03:59:39;-0.50;99.90
22192;DHT22;11261;52.456;10.850;2023-02-28T04:02:09;-0.60;99.90
22192;DHT22;11261;52.456;10.850;2023-02-28T04:04:37;-0.70;99.90
22192;DHT22;11261;52.456;10.850;2023-02-28T04:07:13;-0.70;99.90
22192;DHT22;11261;52.456;10.850;2023-02-28T04:09:42;-0.70;99.90
22192;DHT22;11261;52.456;10.850;2023-02-28T04:12:11;-0.70;99.90
22192;DHT22;11261;52.456;10.850;2023-02-28T04:14:40;-0.80;99.90
22192;DHT22;11261;52.456;10.850;2023-02-28T04:17:08;-0.80;99.90
22192;DHT22;11261;52.456;10.850;2023-02-28T04:19:36;-0.70;99.90
22192;DHT22;11261;52.456;10.850;2023-02-28T04:22:05;-1.30;99.90
22192;DHT22;11261;52.456;10.850;2023-02-28T04:24:34;-1.60;99.90
22192;DHT22;11261;52.456;10.850;2023-02-28T04:27:03;-1.60;99.90
22192;DHT22;11261;52.456;10.850;2023-02-28T04:29:32;-1.20;99.90
22192;DHT22;11261;52.456;10.850;2023-02-28T04:32:01;-1.10;99.90
22192;DHT22;11261;52.456;10.850;2023-02-28T04:34:31;-1.10;99.90
22192;DHT22;11261;52.456;10.850;2023-02-28T04:36:59;-1.00;99.90
22192;DHT22;11261;52.456;10.850;2023-02-28T04:39:41;-1.00;99.90
22192;DHT22;11261;52.456;10.850;2023-02-28T04:42:09;-1.10;99.90
22192;DHT22;11261;52.456;10.850;2023-02-28T04:44:38;-1.00;99.90
22192;DHT22;11261;52.456;10.850;2023-02-28T04:47:06;-1.10;99.90
22192;DHT22;11261;52.456;10.850;2023-02-28T04:49:35;-1.10;99.90
22192;DHT22;11261;52.456;10.850;2023-02-28T04:52:03;-1.00;99.90
22192;DHT22;11261;52.456;10.850;2023-02-28T04:54:31;-1.10;99.90
22192;DHT22;11261;52.456;10.850;2023-02-28T04:57:01;-1.10;99.90
22192;DHT22;11261;52.456;10.850;2023-02-28T04:59:29;-1.20;99.90
22192;DHT22;11261;52.456;10.850;2023-02-28T05:01:58;-1.20;99.90
22192;DHT22;11261;52.456;10.850;2023-02-28T05:04:26;-1.30;99.90
22192;DHT22;11261;52.456;10.850;2023-02-28T05:06:54;-1.20;99.90
22192;DHT22;11261;52.456;10.850;2023-02-28T05:09:23;-1.30;99.90
22192;DHT22;11261;52.456;10.850;2023-02-28T05:11:51;-1.20;99.90
22192;DHT22;11261;52.456;10.850;2023-02-28T05:14:21;-1.20;99.90
22192;DHT22;11261;52.456;10.850;2023-02-28T05:16:49;-1.30;99.90
22192;DHT22;11261;52.456;10.850;2023-02-28T05:19:17;-1.40;99.90
22192;DHT22;11261;52.456;10.850;2023-02-28T05:21:52;-1.40;99.90
22192;DHT22;11261;52.456;10.850;2023-02-28T05:24:20;-1.40;99.90
22192;DHT22;11261;52.456;10.850;2023-02-28T05:26:52;-1.50;99.90
22192;DHT22;11261;52.456;10.850;2023-02-28T05:29:22;-1.40;99.90
22192;DHT22;11261;52.456;10.850;2023-02-28T05:31:50;-1.40;99.90
22192;DHT22;11261;52.456;10.850;2023-02-28T05:34:19;-1.40;99.90
22192;DHT22;11261;52.456;10.850;2023-02-28T05:36:47;-1.40;99.90
22192;DHT22;11261;52.456;10.850;2023-02-28T05:39:15;-1.40;99.90
22192;DHT22;11261;52.456;10.850;2023-02-28T05:41:44;-1.40;99.90
22192;DHT22;11261;52.456;10.850;2023-02-28T05:44:12;-1.50;99.90
22192;DHT22;11261;52.456;10.850;2023-02-28T05:46:41;-1.50;99.90
22192;DHT22;11261;52.456;10.850;2023-02-28T05:49:10;-1.50;99.90
22192;DHT22;11261;52.456;10.850;2023-02-28T05:51:38;-1.50;99.90
22192;DHT22;11261;52.456;10.850;2023-02-28T05:54:07;-1.50;99.90
22192;DHT22;11261;52.456;10.850;2023-02-28T05:56:37;-1.50;99.90
22192;DHT22;11261;52.456;10.850;2023-02-28T05:59:07;-1.60;99.90
22192;DHT22;11261;52.456;10.850;2023-02-28T06:01:37;-1.50;99.90
22192;DHT22;11261;52.456;10.850;2023-02-28T06:04:08;-1.50;99.90
22192;DHT22;11261;52.456;10.850;2023-02-28T06:06:55;-1.60;99.90
22192;DHT22;11261;52.456;10.850;2023-02-28T06:09:24;-1.60;99.90
22192;DHT22;11261;52.456;10.850;2023-02-28T06:11:52;-1.70;99.90
22192;DHT22;11261;52.456;10.850;2023-02-28T06:14:21;-1.80;99.90
22192;DHT22;11261;52.456;10.850;2023-02-28T06:16:49;-1.70;99.90
22192;DHT22;11261;52.456;10.850;2023-02-28T06:19:19;-1.80;99.90
22192;DHT22;11261;52.456;10.850;2023-02-28T06:21:49;-1.70;99.90
22192;DHT22;11261;52.456;10.850;2023-02-28T06:24:19;-1.80;99.90
22192;DHT22;11261;52.456;10.850;2023-02-28T06:26:48;-1.70;99.90
22192;DHT22;11261;52.456;10.850;2023-02-28T06:29:17;-1.70;99.90
22192;DHT22;11261;52.456;10.850;2023-02-28T06:31:45;-1.70;99.90
22192;DHT22;11261;52.456;10.850;2023-02-28T06:34:14;-1.50;99.90
22192;DHT22;11261;52.456;10.850;2023-02-28T06:36:44;-1.20;99.90
22192;DHT22;11261;52.456;10.850;2023-02-28T06:39:12;-1.10;99.90
22192;DHT22;11261;52.456;10.850;2023-02-28T06:41:40;-0.90;99.90
22192;DHT22;11261;52.456;10.850;2023-02-28T06:44:22;-0.30;99.90
22192;DHT22;11261;52.456;10.850;2023-02-28T06:46:51;0.20;99.90
22192;DHT22;11261;52.456;10.850;2023-02-28T06:49:19;0.70;99.90
22192;DHT22;11261;52.456;10.850;2023-02-28T06:51:49;1.00;99.90
22192;DHT22;11261;52.456;10.850;2023-02-28T06:54:17;1.40;99.90
22192;DHT22;11261;52.456;10.850;2023-02-28T06:56:45;1.40;99.90
22192;DHT22;11261;52.456;10.850;2023-02-28T06:59:14;1.60;99.90
22192;DHT22;11261;52.456;10.850;2023-02-28T07:01:42;2.20;99.90
22192;DHT22;11261;52.456;10.850;2023-02-28T07:04:11;2.50;99.90
22192;DHT22;11261;52.456;10.850;2023-02-28T07:06:40;3.00;99.90
22192;DHT22;11261;52.456;10.850;2023-02-28T07:09:10;3.60;99.90
22192;DHT22;11261;52.456;10.850;2023-02-28T07:11:38;3.90;99.90
22192;DHT22;11261;52.456;10.850;2023-02-28T07:14:07;4.40;99.90
22192;DHT22;11261;52.456;10.850;2023-02-28T07:16:35;4.10;99.90
22192;DHT22;11261;52.456;10.850;2023-02-28T07:19:04;4.70;99.90
22192;DHT22;11261;52.456;10.850;2023-02-28T07:21:32;5.20;99.90
22192;DHT22;11261;52.456;10.850;2023-02-28T07:24:00;5.60;99.90
22192;DHT22;11261;52.456;10.850;2023-02-28T07:26:30;6.00;99.90
22192;DHT22;11261;52.456;10.850;2023-02-28T07:29:01;5.70;99.90
22192;DHT22;11261;52.456;10.850;2023-02-28T07:31:29;6.30;99.90
22192;DHT22;11261;52.456;10.850;2023-02-28T07:33:58;6.50;99.90
22192;DHT22;11261;52.456;10.850;2023-02-28T07:36:26;6.50;99.90
22192;DHT22;11261;52.456;10.850;2023-02-28T07:38:55;6.80;99.90
22192;DHT22;11261;52.456;10.850;2023-02-28T07:41:23;6.90;99.90
22192;DHT22;11261;52.456;10.850;2023-02-28T07:43:56;6.90;99.90
22192;DHT22;11261;52.456;10.850;2023-02-28T07:46:27;6.30;99.90
22192;DHT22;11261;52.456;10.850;2023-02-28T07:48:56;5.60;99.90
22192;DHT22;11261;52.456;10.850;2023-02-28T07:51:26;5.80;99.90
22192;DHT22;11261;52.456;10.850;2023-02-28T07:53:55;6.00;99.90
22192;DHT22;11261;52.456;10.850;2023-02-28T07:56:23;6.90;99.90
22192;DHT22;11261;52.456;10.850;2023-02-28T07:58:52;6.10;99.90
22192;DHT22;11261;52.456;10.850;2023-02-28T08:01:22;6.60;99.90
22192;DHT22;11261;52.456;10.850;2023-02-28T08:03:50;6.90;99.90
22192;DHT22;11261;52.456;10.850;2023-02-28T08:06:20;6.40;99.90
22192;DHT22;11261;52.456;10.850;2023-02-28T08:08:49;5.80;99.90
22192;DHT22;11261;52.456;10.850;2023-02-28T08:11:18;6.30;99.90
22192;DHT22;11261;52.456;10.850;2023-02-28T08:13:46;5.80;99.90
22192;DHT22;11261;52.456;10.850;2023-02-28T08:16:15;5.40;99.90
22192;DHT22;11261;52.456;10.850;2023-02-28T08:18:49;5.40;99.90
22192;DHT22;11261;52.456;10.850;2023-02-28T08:21:18;5.50;99.90
22192;DHT22;11261;52.456;10.850;2023-02-28T08:23:47;5.90;99.90
22192;DHT22;11261;52.456;10.850;2023-02-28T08:26:15;5.70;99.90
22192;DHT22;11261;52.456;10.850;2023-02-28T08:28:44;5.70;99.90
22192;DHT22;11261;52.456;10.850;2023-02-28T08:31:14;5.90;99.90
22192;DHT22;11261;52.456;10.850;2023-02-28T08:33:43;6.40;99.90
22192;DHT22;11261;52.456;10.850;2023-02-28T08:36:13;6.30;99.90
22192;DHT22;11261;52.456;10.850;2023-02-28T08:38:42;6.10;99.90
22192;DHT22;11261;52.456;10.850;2023-02-28T08:41:12;5.10;99.90
22192;DHT22;11261;52.456;10.850;2023-02-28T08:43:40;6.60;99.90
22192;DHT22;11261;52.456;10.850;2023-02-28T08:46:12;6.70;99.90
22192;DHT22;11261;52.456;10.850;2023-02-28T08:48:41;6.10;99.90
22192;DHT22;11261;52.456;10.850;2023-02-28T08:51:11;5.90;99.90
22192;DHT22;11261;52.456;10.850;2023-02-28T08:53:41;6.70;99.90
22192;DHT22;11261;52.456;10.850;2023-02-28T08:56:11;6.70;99.90
22192;DHT22;11261;52.456;10.850;2023-02-28T08:58:40;7.60;99.90
22192;DHT22;11261;52.456;10.850;2023-02-28T09:01:12;7.70;99.90
22192;DHT22;11261;52.456;10.850;2023-02-28T09:03:41;7.10;99.90
22192;DHT22;11261;52.456;10.850;2023-02-28T09:06:10;6.10;99.90
22192;DHT22;11261;52.456;10.850;2023-02-28T09:08:40;6.90;99.90
22192;DHT22;11261;52.456;10.850;2023-02-28T09:11:09;7.00;99.90
22192;DHT22;11261;52.456;10.850;2023-02-28T09:13:38;6.70;99.90
22192;DHT22;11261;52.456;10.850;2023-02-28T09:16:08;6.70;99.90
22192;DHT22;11261;52.456;10.850;2023-02-28T09:18:38;7.70;99.90
22192;DHT22;11261;52.456;10.850;2023-02-28T09:21:08;7.60;99.90
22192;DHT22;11261;52.456;10.850;2023-02-28T09:23:37;7.70;99.90
22192;DHT22;11261;52.456;10.850;2023-02-28T09:26:07;7.20;99.90
22192;DHT22;11261;52.456;10.850;2023-02-28T09:28:36;7.40;99.90
22192;DHT22;11261;52.456;10.850;2023-02-28T09:31:05;7.30;99.90
22192;DHT22;11261;52.456;10.850;2023-02-28T09:33:33;6.40;99.90
22192;DHT22;11261;52.456;10.850;2023-02-28T09:36:03;6.30;99.90
22192;DHT22;11261;52.456;10.850;2023-02-28T09:38:32;7.60;99.90
22192;DHT22;11261;52.456;10.850;2023-02-28T09:41:02;7.40;99.90
22192;DHT22;11261;52.456;10.850;2023-02-28T09:43:37;7.90;99.90
22192;DHT22;11261;52.456;10.850;2023-02-28T09:46:12;8.40;99.90
22192;DHT22;11261;52.456;10.850;2023-02-28T09:48:45;7.70;99.90
22192;DHT22;11261;52.456;10.850;2023-02-28T09:51:27;7.90;99.90
22192;DHT22;11261;52.456;10.850;2023-02-28T09:53:56;7.40;99.90
22192;DHT22;11261;52.456;10.850;2023-02-28T09:56:31;6.90;99.90
22192;DHT22;11261;52.456;10.850;2023-02-28T09:59:05;7.90;99.90
22192;DHT22;11261;52.456;10.850;2023-02-28T10:01:45;7.80;99.90
22192;DHT22;11261;52.456;10.850;2023-02-28T10:04:36;8.00;99.90
22192;DHT22;11261;52.456;10.850;2023-02-28T10:07:17;7.60;99.90
22192;DHT22;11261;52.456;10.850;2023-02-28T10:09:50;6.10;99.90
22192;DHT22;11261;52.456;10.850;2023-02-28T10:12:20;7.20;99.90
22192;DHT22;11261;52.456;10.850;2023-02-28T10:14:52;7.00;99.90
22192;DHT22;11261;52.456;10.850;2023-02-28T10:17:25;7.50;99.90
22192;DHT22;11261;52.456;10.850;2023-02-28T10:19:59;5.80;99.90
22192;DHT22;11261;52.456;10.850;2023-02-28T10:22:38;6.90;99.90
22192;DHT22;11261;52.456;10.850;2023-02-28T10:25:19;7.00;99.90
22192;DHT22;11261;52.456;10.850;2023-02-28T10:27:49;7.90;99.90
22192;DHT22;11261;52.456;10.850;2023-02-28T10:30:20;7.50;99.90
22192;DHT22;11261;52.456;10.850;2023-02-28T10:32:51;9.20;99.90
22192;DHT22;11261;52.456;10.850;2023-02-28T10:35:22;7.70;99.90
22192;DHT22;11261;52.456;10.850;2023-02-28T10:37:54;8.10;99.90
22192;DHT22;11261;52.456;10.850;2023-02-28T10:40:32;8.20;99.90
22192;DHT22;11261;52.456;10.850;2023-02-28T10:43:04;8.50;99.90
22192;DHT22;11261;52.456;10.850;2023-02-28T10:45:35;7.80;99.90
22192;DHT22;11261;52.456;10.850;2023-02-28T10:48:06;7.50;99.90
22192;DHT22;11261;52.456;10.850;2023-02-28T10:50:53;8.50;99.90
22192;DHT22;11261;52.456;10.850;2023-02-28T10:53:37;7.50;99.90
22192;DHT22;11261;52.456;10.850;2023-02-28T10:56:26;7.00;99.90
22192;DHT22;11261;52.456;10.850;2023-02-28T10:58:57;7.60;99.90
22192;DHT22;11261;52.456;10.850;2023-02-28T11:01:36;6.70;99.90
22192;DHT22;11261;52.456;10.850;2023-02-28T11:04:17;7.40;99.90
22192;DHT22;11261;52.456;10.850;2023-02-28T11:06:48;7.20;99.90
22192;DHT22;11261;52.456;10.850;2023-02-28T11:09:28;7.50;99.90
22192;DHT22;11261;52.456;10.850;2023-02-28T11:11:57;6.50;99.90
22192;DHT22;11261;52.456;10.850;2023-02-28T11:14:28;7.00;99.90
22192;DHT22;11261;52.456;10.850;2023-02-28T11:17:12;7.00;99.90
22192;DHT22;11261;52.456;10.850;2023-02-28T11:19:46;6.90;99.90
22192;DHT22;11261;52.456;10.850;2023-02-28T11:22:19;6.00;98.80
22192;DHT22;11261;52.456;10.850;2023-02-28T11:24:50;6.20;99.90
22192;DHT22;11261;52.456;10.850;2023-02-28T11:27:26;6.90;99.90
22192;DHT22;11261;52.456;10.850;2023-02-28T11:30:30;7.50;98.20
22192;DHT22;11261;52.456;10.850;2023-02-28T11:33:00;7.30;98.00
22192;DHT22;11261;52.456;10.850;2023-02-28T11:35:31;6.60;98.70
22192;DHT22;11261;52.456;10.850;2023-02-28T11:38:02;7.90;97.70
22192;DHT22;11261;52.456;10.850;2023-02-28T11:40:37;7.10;97.90
22192;DHT22;11261;52.456;10.850;2023-02-28T11:43:20;6.60;98.50
22192;DHT22;11261;52.456;10.850;2023-02-28T11:46:07;6.80;98.20
22192;DHT22;11261;52.456;10.850;2023-02-28T11:48:49;7.60;97.90
22192;DHT22;11261;52.456;10.850;2023-02-28T11:51:23;7.10;98.90
22192;DHT22;11261;52.456;10.850;2023-02-28T11:54:11;6.80;98.40
22192;DHT22;11261;52.456;10.850;2023-02-28T11:56:48;6.50;99.40
22192;DHT22;11261;52.456;10.850;2023-02-28T11:59:43;6.00;99.60
22192;DHT22;11261;52.456;10.850;2023-02-28T12:02:24;6.70;98.50
22192;DHT22;11261;52.456;10.850;2023-02-28T12:05:10;6.10;99.80
22192;DHT22;11261;52.456;10.850;2023-02-28T12:07:49;6.40;99.90
22192;DHT22;11261;52.456;10.850;2023-02-28T12:10:21;6.90;98.80
22192;DHT22;11261;52.456;10.850;2023-02-28T12:13:01;6.30;99.90
22192;DHT22;11261;52.456;10.850;2023-02-28T12:15:42;6.10;99.30
22192;DHT22;11261;52.456;10.850;2023-02-28T12:18:31;5.40;99.90
22192;DHT22;11261;52.456;10.850;2023-02-28T12:21:14;6.40;99.90
22192;DHT22;11261;52.456;10.850;2023-02-28T12:24:03;6.90;97.90
22192;DHT22;11261;52.456;10.850;2023-02-28T12:26:36;6.90;98.70
22192;DHT22;11261;52.456;10.850;2023-02-28T12:29:12;6.90;99.90
22192;DHT22;11261;52.456;10.850;2023-02-28T12:31:46;8.20;99.90
22192;DHT22;11261;52.456;10.850;2023-02-28T12:34:20;8.50;98.70
22192;DHT22;11261;52.456;10.850;2023-02-28T12:36:52;8.70;99.90
22192;DHT22;11261;52.456;10.850;2023-02-28T12:39:25;7.70;96.90
22192;DHT22;11261;52.456;10.850;2023-02-28T12:42:00;7.90;99.90
22192;DHT22;11261;52.456;10.850;2023-02-28T12:44:33;7.80;97.40
22192;DHT22;11261;52.456;10.850;2023-02-28T12:47:05;7.10;96.50
22192;DHT22;11261;52.456;10.850;2023-02-28T12:49:41;6.40;98.30
22192;DHT22;11261;52.456;10.850;2023-02-28T12:52:13;7.70;99.90
22192;DHT22;11261;52.456;10.850;2023-02-28T12:54:47;7.40;99.90
22192;DHT22;11261;52.456;10.850;2023-02-28T12:57:19;6.90;98.80
22192;DHT22;11261;52.456;10.850;2023-02-28T12:59:54;6.80;99.90
22192;DHT22;11261;52.456;10.850;2023-02-28T13:02:42;6.50;99.50
22192;DHT22;11261;52.456;10.850;2023-02-28T13:05:32;7.10;99.60
22192;DHT22;11261;52.456;10.850;2023-02-28T13:10:59;6.30;99.90
22192;DHT22;11261;52.456;10.850;2023-02-28T13:13:33;6.10;99.60
22192;DHT22;11261;52.456;10.850;2023-02-28T13:16:05;7.40;99.90
22192;DHT22;11261;52.456;10.850;2023-02-28T13:18:36;8.00;99.80
22192;DHT22;11261;52.456;10.850;2023-02-28T13:21:08;7.90;98.00
22192;DHT22;11261;52.456;10.850;2023-02-28T13:23:58;6.70;98.90
22192;DHT22;11261;52.456;10.850;2023-02-28T13:29:38;7.80;99.90
22192;DHT22;11261;52.456;10.850;2023-02-28T13:32:33;7.90;99.90
22192;DHT22;11261;52.456;10.850;2023-02-28T13:38:24;6.30;99.90
22192;DHT22;11261;52.456;10.850;2023-02-28T13:44:08;7.20;99.90
22192;DHT22;11261;52.456;10.850;2023-02-28T13:49:43;6.30;98.80
22192;DHT22;11261;52.456;10.850;2023-02-28T13:52:16;6.20;99.00
22192;DHT22;11261;52.456;10.850;2023-02-28T13:57:49;7.10;99.90
22192;DHT22;11261;52.456;10.850;2023-02-28T14:00:31;7.50;99.90
22192;DHT22;11261;52.456;10.850;2023-02-28T14:03:22;7.20;99.90
22192;DHT22;11261;52.456;10.850;2023-02-28T14:06:13;6.90;97.60
22192;DHT22;11261;52.456;10.850;2023-02-28T14:08:51;6.40;97.70
22192;DHT22;11261;52.456;10.850;2023-02-28T14:11:26;6.50;99.90
22192;DHT22;11261;52.456;10.850;2023-02-28T14:13:55;6.50;97.20
22192;DHT22;11261;52.456;10.850;2023-02-28T14:16:26;6.10;98.00
22192;DHT22;11261;52.456;10.850;2023-02-28T14:19:00;6.70;99.70
22192;DHT22;11261;52.456;10.850;2023-02-28T14:21:32;6.70;97.80
22192;DHT22;11261;52.456;10.850;2023-02-28T14:30:24;6.50;97.60
22192;DHT22;11261;52.456;10.850;2023-02-28T14:33:14;6.70;98.90
22192;DHT22;11261;52.456;10.850;2023-02-28T14:36:04;6.50;96.70
22192;DHT22;11261;52.456;10.850;2023-02-28T14:38:41;6.30;97.20
22192;DHT22;11261;52.456;10.850;2023-02-28T14:41:19;5.90;96.60
22192;DHT22;11261;52.456;10.850;2023-02-28T14:43:50;6.00;97.50
22192;DHT22;11261;52.456;10.850;2023-02-28T14:46:20;6.10;96.90
22192;DHT22;11261;52.456;10.850;2023-02-28T14:48:50;6.20;96.80
22192;DHT22;11261;52.456;10.850;2023-02-28T14:51:20;6.20;97.40
22192;DHT22;11261;52.456;10.850;2023-02-28T14:53:52;6.10;97.40
22192;DHT22;11261;52.456;10.850;2023-02-28T14:56:24;6.20;97.70
22192;DHT22;11261;52.456;10.850;2023-02-28T14:58:55;6.60;99.90
22192;DHT22;11261;52.456;10.850;2023-02-28T15:01:25;6.80;99.90
22192;DHT22;11261;52.456;10.850;2023-02-28T15:04:00;7.00;99.90
22192;DHT22;11261;52.456;10.850;2023-02-28T15:06:30;6.50;97.70
22192;DHT22;11261;52.456;10.850;2023-02-28T15:09:15;6.30;97.00
22192;DHT22;11261;52.456;10.850;2023-02-28T15:11:46;6.50;99.90
22192;DHT22;11261;52.456;10.850;2023-02-28T15:14:19;6.30;99.90
22192;DHT22;11261;52.456;10.850;2023-02-28T15:16:52;6.70;99.90
22192;DHT22;11261;52.456;10.850;2023-02-28T15:19:26;6.80;98.70
22192;DHT22;11261;52.456;10.850;2023-02-28T15:22:00;6.60;98.10
22192;DHT22;11261;52.456;10.850;2023-02-28T15:24:35;6.70;99.90
22192;DHT22;11261;52.456;10.850;2023-02-28T15:27:06;6.30;96.90
22192;DHT22;11261;52.456;10.850;2023-02-28T15:29:43;5.70;96.80
22192;DHT22;11261;52.456;10.850;2023-02-28T15:32:24;5.90;97.30
22192;DHT22;11261;52.456;10.850;2023-02-28T15:34:56;5.70;96.90
22192;DHT22;11261;52.456;10.850;2023-02-28T15:37:39;5.70;97.20
22192;DHT22;11261;52.456;10.850;2023-02-28T15:40:14;5.70;96.90
22192;DHT22;11261;52.456;10.850;2023-02-28T15:42:59;5.80;96.60
22192;DHT22;11261;52.456;10.850;2023-02-28T15:45:39;5.70;96.20
22192;DHT22;11261;52.456;10.850;2023-02-28T15:48:17;5.60;97.50
22192;DHT22;11261;52.456;10.850;2023-02-28T15:50:50;5.70;97.00
22192;DHT22;11261;52.456;10.850;2023-02-28T15:53:22;5.70;96.70
22192;DHT22;11261;52.456;10.850;2023-02-28T15:55:54;5.90;96.90
22192;DHT22;11261;52.456;10.850;2023-02-28T15:58:24;5.70;99.30
22192;DHT22;11261;52.456;10.850;2023-02-28T16:01:04;5.60;99.70
22192;DHT22;11261;52.456;10.850;2023-02-28T16:03:43;5.70;99.90
22192;DHT22;11261;52.456;10.850;2023-02-28T16:06:36;5.50;99.90
22192;DHT22;11261;52.456;10.850;2023-02-28T16:09:08;5.40;99.90
22192;DHT22;11261;52.456;10.850;2023-02-28T16:11:39;5.40;99.50
22192;DHT22;11261;52.456;10.850;2023-02-28T16:14:16;5.40;99.90
22192;DHT22;11261;52.456;10.850;2023-02-28T16:16:48;5.50;99.90
22192;DHT22;11261;52.456;10.850;2023-02-28T16:19:16;5.50;99.90
22192;DHT22;11261;52.456;10.850;2023-02-28T16:21:46;5.40;99.90
22192;DHT22;11261;52.456;10.850;2023-02-28T16:24:15;5.30;99.90
22192;DHT22;11261;52.456;10.850;2023-02-28T16:26:47;5.30;99.90
22192;DHT22;11261;52.456;10.850;2023-02-28T16:29:21;5.30;99.50
22192;DHT22;11261;52.456;10.850;2023-02-28T16:31:51;5.10;99.90
22192;DHT22;11261;52.456;10.850;2023-02-28T16:34:20;5.00;99.90